Time;durP1;ratioP1;P1;durP2;ratioP2;P2;SDS_P1;SDS_P2;PMS_P1;PMS_P2;Temp;Humidity;BMP_temperature;BMP_pressure;BME280_temperature;BME280_humidity;BME280_pressure;Samples;Min_cycle;Max_cycle;Signal;HPM_P1;HPM_P2
2023/04/02 00:00:10;;;;;;;;;;;;;;;-2.14;96.04;101306.84;5072605;28;19916;-67
2023/04/02 00:02:45;;;;;;;;;;;;;;;-2.13;96.08;101305.94;5072435;28;19916;-66
2023/04/02 00:05:18;;;;;;;;;;;;;;;-2.12;96.71;101299.81;5072411;28;19928;-68
2023/04/02 00:07:50;;;;;;;;;;;;;;;-2.12;97.12;101310.25;5072533;28;19912;-65
2023/04/02 00:10:30;;;;;;;;;;;;;;;-2.14;97.71;101308.63;5054370;28;19927;-67
2023/04/02 00:13:02;;;;;;;;;;;;;;;-2.19;98.30;101309.66;5072335;28;19919;-66
2023/04/02 00:15:27;;;;;;;;;;;;;;;-2.23;98.96;101315.09;5072246;28;19913;-66
2023/04/02 00:17:53;;;;;;;;;;;;;;;-2.23;99.00;101315.94;5054386;28;19920;-67
2023/04/02 00:20:19;;;;;;;;;;;;;;;-2.24;99.49;101309.03;5072189;28;19919;-66
2023/04/02 00:22:44;;;;;;;;;;;;;;;-2.21;98.77;101321.09;5072327;28;19913;-66
2023/04/02 00:25:12;;;;;;;;;;;;;;;-2.21;98.81;101327.16;5072325;28;20310;-66
2023/04/02 00:27:38;;;;;;;;;;;;;;;-2.21;99.15;101321.09;5072110;28;19940;-66
2023/04/02 00:30:04;;;;;;;;;;;;;;;-2.25;100.00;101328.22;5072064;28;19968;-65
2023/04/02 00:32:30;;;;;;;;;;;;;;;-2.28;100.00;101333.56;5072281;28;19959;-65
2023/04/02 00:34:57;;;;;;;;;;;;;;;-2.23;100.00;101333.38;5072188;28;20344;-67
2023/04/02 00:37:26;;;;;;;;;;;;;;;-2.22;100.00;101354.16;5054124;28;20283;-66
2023/04/02 00:39:57;;;;;;;;;;;;;;;-2.25;100.00;101333.44;5072097;28;19974;-66
2023/04/02 00:42:24;;;;;;;;;;;;;;;-2.28;100.00;101341.41;5072033;28;19919;-65
2023/04/02 00:44:49;;;;;;;;;;;;;;;-2.29;100.00;101341.47;5072515;28;20379;-65
2023/04/02 00:47:25;;;;;;;;;;;;;;;-2.30;100.00;101345.84;5072031;28;19959;-66
2023/04/02 00:50:00;;;;;;;;;;;;;;;-2.25;100.00;101359.53;5071954;28;19939;-65
2023/04/02 00:52:28;;;;;;;;;;;;;;;-2.29;100.00;101357.97;5071903;28;20406;-67
2023/04/02 00:55:09;;;;;;;;;;;;;;;-2.26;100.00;101357.81;5071653;28;19923;-66
2023/04/02 00:57:35;;;;;;;;;;;;;;;-2.25;100.00;101364.75;5072035;28;20014;-66
2023/04/02 01:00:14;;;;;;;;;;;;;;;-2.29;100.00;101354.50;5072137;28;19919;-65
2023/04/02 01:02:40;;;;;;;;;;;;;;;-2.33;100.00;101361.59;5075845;28;20034;-66
2023/04/02 01:05:13;;;;;;;;;;;;;;;-2.34;100.00;101364.25;5075845;28;19975;-67
2023/04/02 01:07:42;;;;;;;;;;;;;;;-2.35;100.00;101358.19;5058002;28;20347;-64
2023/04/02 01:10:26;;;;;;;;;;;;;;;-2.34;100.00;101374.69;5075536;28;19975;-64
2023/04/02 01:13:10;;;;;;;;;;;;;;;-2.38;100.00;101370.53;5075561;28;19923;-67
2023/04/02 01:15:40;;;;;;;;;;;;;;;-2.38;100.00;101378.34;5075459;28;20356;-64
2023/04/02 01:18:17;;;;;;;;;;;;;;;-2.42;100.00;101385.47;5075447;28;19913;-66
2023/04/02 01:21:03;;;;;;;;;;;;;;;-2.44;100.00;101379.47;5075498;28;19919;-65
2023/04/02 01:23:38;;;;;;;;;;;;;;;-2.43;100.00;101382.94;5074717;28;20375;-67
2023/04/02 01:26:09;;;;;;;;;;;;;;;-2.43;100.00;101389.00;5076015;28;19913;-65
2023/04/02 01:28:50;;;;;;;;;;;;;;;-2.42;100.00;101390.69;5076336;28;19955;-68
2023/04/02 01:31:16;;;;;;;;;;;;;;;-2.44;100.00;101389.91;5075336;28;20260;-67
2023/04/02 01:33:42;;;;;;;;;;;;;;;-2.44;100.00;101392.50;5075300;28;19978;-66
2023/04/02 01:36:20;;;;;;;;;;;;;;;-2.45;100.00;101385.59;5075246;28;19912;-66
2023/04/02 01:38:54;;;;;;;;;;;;;;;-2.48;100.00;101396.16;5075311;28;19912;-66
2023/04/02 01:41:28;;;;;;;;;;;;;;;-2.49;100.00;101402.28;5075295;28;19991;-66
2023/04/02 01:43:57;;;;;;;;;;;;;;;-2.50;100.00;101414.47;5075148;28;20003;-66
2023/04/02 01:46:34;;;;;;;;;;;;;;;-2.53;100.00;101408.56;5074853;28;19958;-66
2023/04/02 01:49:08;;;;;;;;;;;;;;;-2.54;100.00;101404.25;5075803;28;19964;-66
2023/04/02 01:51:35;;;;;;;;;;;;;;;-2.56;100.00;101412.13;5057406;28;19961;-65
2023/04/02 01:54:02;;;;;;;;;;;;;;;-2.56;100.00;101416.50;5074890;28;19990;-67
2023/04/02 01:56:27;;;;;;;;;;;;;;;-2.57;100.00;101420.03;5074867;28;20011;-67
2023/04/02 01:58:53;;;;;;;;;;;;;;;-2.58;100.00;101418.34;5074818;28;20003;-65
2023/04/02 02:01:22;;;;;;;;;;;;;;;-2.60;100.00;101422.75;5074818;28;19947;-66
2023/04/02 02:03:48;;;;;;;;;;;;;;;-2.60;100.00;101431.44;5076548;28;19966;-64
2023/04/02 02:06:15;;;;;;;;;;;;;;;-2.58;100.00;101436.59;5074943;28;20319;-65
2023/04/02 02:09:03;;;;;;;;;;;;;;;-2.62;100.00;101438.44;5074628;28;20038;-66
2023/04/02 02:11:29;;;;;;;;;;;;;;;-2.65;100.00;101435.13;5074446;28;20372;-65
2023/04/02 02:13:58;;;;;;;;;;;;;;;-2.68;100.00;101445.66;5074329;28;19919;-66
2023/04/02 02:16:26;;;;;;;;;;;;;;;-2.72;100.00;101442.34;5074505;28;19913;-65
2023/04/02 02:18:53;;;;;;;;;;;;;;;-2.73;100.00;101445.00;5074596;28;19920;-67
2023/04/02 02:21:42;;;;;;;;;;;;;;;-2.78;100.00;101442.59;5074341;28;19912;-65
2023/04/02 02:24:22;;;;;;;;;;;;;;;-2.84;100.00;101453.28;5060867;28;20375;-68
2023/04/02 02:26:49;;;;;;;;;;;;;;;-2.83;100.00;101460.19;5074253;28;19912;-66
2023/04/02 02:29:17;;;;;;;;;;;;;;;-2.82;100.00;101460.13;5074181;28;19958;-65
2023/04/02 02:31:46;;;;;;;;;;;;;;;-2.86;100.00;101460.31;5074294;28;19916;-64
2023/04/02 02:34:15;;;;;;;;;;;;;;;-2.88;100.00;101462.13;5074102;28;19922;-66
2023/04/02 02:36:51;;;;;;;;;;;;;;;-2.90;100.00;101469.97;5075068;28;19916;-64
2023/04/02 02:39:21;;;;;;;;;;;;;;;-2.91;100.00;101481.31;5074960;28;19965;-66
2023/04/02 02:41:46;;;;;;;;;;;;;;;-2.92;100.00;101483.97;5074156;28;19920;-67
2023/04/02 02:44:18;;;;;;;;;;;;;;;-2.93;100.00;101493.53;5073845;28;19912;-66
2023/04/02 02:46:55;;;;;;;;;;;;;;;-2.90;100.00;101489.97;5074010;28;19983;-66
2023/04/02 02:49:24;;;;;;;;;;;;;;;-2.94;100.00;101484.03;5074105;28;20241;-66
2023/04/02 02:51:56;;;;;;;;;;;;;;;-2.93;100.00;101487.50;5073646;28;20433;-66
2023/04/02 02:54:21;;;;;;;;;;;;;;;-2.93;100.00;101496.16;5073851;28;20264;-66
2023/04/02 02:56:49;;;;;;;;;;;;;;;-2.94;100.00;101491.00;5073941;28;19912;-67
2023/04/02 02:59:15;;;;;;;;;;;;;;;-2.94;100.00;101494.47;5073402;28;20244;-65
2023/04/02 03:01:42;;;;;;;;;;;;;;;-2.92;100.00;101487.44;5073225;28;19920;-66
2023/04/02 03:04:07;;;;;;;;;;;;;;;-2.96;100.00;101496.28;5073134;28;19924;-65
2023/04/02 03:06:33;;;;;;;;;;;;;;;-2.95;100.00;101500.56;5056062;28;19934;-66
2023/04/02 03:09:04;;;;;;;;;;;;;;;-2.96;100.00;101501.50;5073490;28;20361;-66
2023/04/02 03:11:33;;;;;;;;;;;;;;;-2.96;100.00;101506.69;5073454;28;20325;-66
2023/04/02 03:14:05;;;;;;;;;;;;;;;-2.95;100.00;101502.34;5073157;28;20339;-65
2023/04/02 03:16:35;;;;;;;;;;;;;;;-2.98;100.00;101505.91;5073292;28;19922;-66
2023/04/02 03:19:07;;;;;;;;;;;;;;;-2.99;100.00;101512.03;5073466;28;19959;-66
2023/04/02 03:21:38;;;;;;;;;;;;;;;-2.95;100.00;101513.59;5073267;28;19912;-65
2023/04/02 03:24:16;;;;;;;;;;;;;;;-3.00;100.00;101512.09;5072736;28;19912;-67
2023/04/02 03:26:49;;;;;;;;;;;;;;;-2.99;100.00;101525.06;5073175;28;19916;-66
2023/04/02 03:29:15;;;;;;;;;;;;;;;-2.97;100.00;101515.44;5073011;28;20360;-65
2023/04/02 03:31:43;;;;;;;;;;;;;;;-3.01;100.00;101523.44;5072982;28;19919;-66
2023/04/02 03:34:16;;;;;;;;;;;;;;;-2.99;100.00;101527.66;5072767;28;19935;-66
2023/04/02 03:36:56;;;;;;;;;;;;;;;-3.01;100.00;101524.28;5073415;28;20438;-65
2023/04/02 03:39:26;;;;;;;;;;;;;;;-3.02;100.00;101534.75;5054953;28;19917;-65
2023/04/02 03:41:51;;;;;;;;;;;;;;;-3.04;100.00;101531.34;5052978;28;19913;-66
2023/04/02 03:44:35;;;;;;;;;;;;;;;-3.09;100.00;101536.75;5052906;28;19958;-66
2023/04/02 03:47:04;;;;;;;;;;;;;;;-3.09;100.00;101544.56;5052809;28;19934;-66
2023/04/02 03:49:35;;;;;;;;;;;;;;;-3.08;100.00;101541.06;5052756;28;19912;-65
2023/04/02 03:52:04;;;;;;;;;;;;;;;-3.06;100.00;101544.44;5052579;28;19920;-67
2023/04/02 03:54:30;;;;;;;;;;;;;;;-3.03;100.00;101551.31;5052584;28;20027;-66
2023/04/02 03:56:55;;;;;;;;;;;;;;;-3.04;100.00;101555.66;5052810;28;19920;-66
2023/04/02 03:59:27;;;;;;;;;;;;;;;-3.01;100.00;101565.13;5052705;28;19917;-64
2023/04/02 04:01:55;;;;;;;;;;;;;;;-3.00;100.00;101567.66;5052294;28;19924;-66
2023/04/02 04:04:22;;;;;;;;;;;;;;;-2.97;100.00;101571.91;5052349;28;19932;-66
2023/04/02 04:06:51;;;;;;;;;;;;;;;-2.95;100.00;101573.56;5052669;28;19913;-66
2023/04/02 04:09:42;;;;;;;;;;;;;;;-2.97;100.00;101574.53;5052673;28;20268;-65
2023/04/02 04:12:16;;;;;;;;;;;;;;;-2.92;100.00;101572.59;5049821;28;19919;-67
2023/04/02 04:14:44;;;;;;;;;;;;;;;-2.86;100.00;101583.66;5052295;28;19947;-67
2023/04/02 04:17:28;;;;;;;;;;;;;;;-2.85;100.00;101581.91;5052037;28;19920;-67
2023/04/02 04:20:00;;;;;;;;;;;;;;;-2.82;100.00;101582.63;5034678;28;19913;-65
2023/04/02 04:22:30;;;;;;;;;;;;;;;-2.80;100.00;101587.78;5052362;28;19920;-66
2023/04/02 04:24:56;;;;;;;;;;;;;;;-2.76;100.00;101585.91;5052341;28;19959;-67
2023/04/02 04:27:32;;;;;;;;;;;;;;;-2.73;100.00;101585.78;5052036;28;20019;-65
2023/04/02 04:30:23;;;;;;;;;;;;;;;-2.73;100.00;101591.84;5052326;28;19912;-65
2023/04/02 04:33:02;;;;;;;;;;;;;;;-2.73;100.00;101599.69;5053083;28;20011;-67
2023/04/02 04:35:31;;;;;;;;;;;;;;;-2.69;100.00;101608.22;5054151;28;19944;-67
2023/04/02 04:37:59;;;;;;;;;;;;;;;-2.68;100.00;101604.72;5059597;28;19913;-68
2023/04/02 04:40:30;;;;;;;;;;;;;;;-2.69;100.00;101609.09;5057821;28;19919;-66
2023/04/02 04:43:00;;;;;;;;;;;;;;;-2.70;100.00;101610.00;5057340;28;19912;-66
2023/04/02 04:45:29;;;;;;;;;;;;;;;-2.69;100.00;101611.69;5056239;28;19913;-67
2023/04/02 04:47:58;;;;;;;;;;;;;;;-2.66;100.00;101603.75;5056068;28;19967;-68
2023/04/02 04:50:29;;;;;;;;;;;;;;;-2.66;100.00;101608.97;5038646;28;20311;-68
2023/04/02 04:52:55;;;;;;;;;;;;;;;-2.66;100.00;101608.13;5056504;28;20012;-65
2023/04/02 04:55:23;;;;;;;;;;;;;;;-2.63;100.00;101610.59;5055969;28;20007;-68
2023/04/02 04:57:49;;;;;;;;;;;;;;;-2.61;100.00;101614.00;5056255;28;19962;-67
2023/04/02 05:00:18;;;;;;;;;;;;;;;-2.60;100.00;101613.13;5056234;28;19913;-68
2023/04/02 05:02:53;;;;;;;;;;;;;;;-2.58;100.00;101611.31;5038404;28;19916;-67
2023/04/02 05:05:23;;;;;;;;;;;;;;;-2.52;100.00;101618.91;5057170;28;20421;-67
2023/04/02 05:07:51;;;;;;;;;;;;;;;-2.52;100.00;101619.75;5056322;28;19919;-67
2023/04/02 05:10:39;;;;;;;;;;;;;;;-2.46;100.00;101615.19;5055994;28;19951;-66
2023/04/02 05:13:10;;;;;;;;;;;;;;;-2.44;100.00;101627.28;5047698;28;19913;-67
2023/04/02 05:15:52;;;;;;;;;;;;;;;-2.44;100.00;101627.28;5055846;28;19963;-66
2023/04/02 05:18:38;;;;;;;;;;;;;;;-2.41;100.00;101624.53;5055942;28;20051;-67
2023/04/02 05:21:07;;;;;;;;;;;;;;;-2.32;100.00;101625.94;5055750;28;19919;-71
2023/04/02 05:23:48;;;;;;;;;;;;;;;-2.25;100.00;101624.81;5037617;28;20016;-68
2023/04/02 05:26:20;;;;;;;;;;;;;;;-2.22;100.00;101635.13;5056404;28;20356;-66
2023/04/02 05:28:51;;;;;;;;;;;;;;;-2.21;100.00;101644.66;5055879;28;20390;-66
2023/04/02 05:31:24;;;;;;;;;;;;;;;-2.22;100.00;101646.41;5055769;28;19952;-66
2023/04/02 05:33:50;;;;;;;;;;;;;;;-2.20;100.00;101660.25;5039534;28;19991;-68
2023/04/02 05:36:21;;;;;;;;;;;;;;;-2.17;100.00;101648.84;5057021;28;19920;-68
2023/04/02 05:38:47;;;;;;;;;;;;;;;-2.14;100.00;101659.16;5057137;28;19916;-68
2023/04/02 05:41:31;;;;;;;;;;;;;;;-2.12;100.00;101657.34;5055903;28;20012;-67
2023/04/02 05:44:08;;;;;;;;;;;;;;;-2.12;100.00;101657.34;5055394;28;19913;-67
2023/04/02 05:46:42;;;;;;;;;;;;;;;-2.06;100.00;101656.25;5054707;28;19958;-67
2023/04/02 05:49:12;;;;;;;;;;;;;;;-2.00;100.00;101666.47;5055388;28;19938;-68
2023/04/02 05:51:44;;;;;;;;;;;;;;;-1.96;100.00;101666.28;5055154;28;20245;-69
2023/04/02 05:54:17;;;;;;;;;;;;;;;-1.94;99.71;101672.28;5054938;28;19950;-68
2023/04/02 05:56:45;;;;;;;;;;;;;;;-1.95;99.34;101688.00;5054983;28;19913;-68
2023/04/02 05:59:15;;;;;;;;;;;;;;;-2.01;99.37;101675.22;5054894;28;19912;-70
2023/04/02 06:01:48;;;;;;;;;;;;;;;-1.98;99.51;101677.69;5033784;28;19917;-66
2023/04/02 06:04:16;;;;;;;;;;;;;;;-1.92;98.78;101685.28;5035084;28;19921;-66
2023/04/02 06:06:45;;;;;;;;;;;;;;;-1.96;98.98;101684.56;5034923;28;19937;-68
2023/04/02 06:09:14;;;;;;;;;;;;;;;-1.93;98.91;101691.41;5034248;28;19920;-69
2023/04/02 06:11:44;;;;;;;;;;;;;;;-1.91;99.24;101681.75;5034324;28;19917;-66
2023/04/02 06:14:13;;;;;;;;;;;;;;;-1.85;98.61;101686.72;5035365;28;20327;-67
2023/04/02 06:16:39;;;;;;;;;;;;;;;-1.73;98.63;101690.63;5034953;28;19928;-66
2023/04/02 06:19:08;;;;;;;;;;;;;;;-1.59;98.07;101689.16;5034735;28;19913;-65
2023/04/02 06:21:34;;;;;;;;;;;;;;;-1.50;97.56;101703.59;5034659;28;19917;-68
2023/04/02 06:24:02;;;;;;;;;;;;;;;-1.47;96.30;101703.47;5035123;28;19928;-66
2023/04/02 06:26:33;;;;;;;;;;;;;;;-1.45;96.57;101698.16;5035293;28;19913;-67
2023/04/02 06:29:05;;;;;;;;;;;;;;;-1.47;95.40;101700.00;5034394;28;19944;-67
2023/04/02 06:31:41;;;;;;;;;;;;;;;-1.43;95.82;101704.22;5034209;28;19952;-68
2023/04/02 06:34:13;;;;;;;;;;;;;;;-1.34;95.97;101703.81;5048017;28;19912;-67
2023/04/02 06:36:39;;;;;;;;;;;;;;;-1.24;95.44;101710.34;5053963;28;19925;-67
2023/04/02 06:39:07;;;;;;;;;;;;;;;-1.14;95.06;101710.84;5054273;28;20261;-67
2023/04/02 06:41:33;;;;;;;;;;;;;;;-1.13;94.39;101713.38;5053645;28;20012;-66
2023/04/02 06:44:07;;;;;;;;;;;;;;;-1.16;94.06;101718.72;5052982;28;19924;-67
2023/04/02 06:46:47;;;;;;;;;;;;;;;-1.19;93.93;101715.38;5033999;28;20029;-68
2023/04/02 06:49:16;;;;;;;;;;;;;;;-1.17;94.29;101717.03;5033997;28;20315;-68
2023/04/02 06:51:43;;;;;;;;;;;;;;;-1.12;93.55;101720.31;5037808;28;19917;-69
2023/04/02 06:54:15;;;;;;;;;;;;;;;-1.03;93.68;101730.38;5040042;28;20296;-70
2023/04/02 06:56:47;;;;;;;;;;;;;;;-0.93;93.28;101729.06;5035170;28;20320;-67
2023/04/02 06:59:13;;;;;;;;;;;;;;;-0.86;92.58;101747.13;5033667;28;20288;-72
2023/04/02 07:01:43;;;;;;;;;;;;;;;-0.82;92.99;101717.31;5048079;28;19917;-72
2023/04/02 07:04:09;;;;;;;;;;;;;;;-0.74;92.53;101728.28;5055156;28;19917;-68
2023/04/02 07:06:35;;;;;;;;;;;;;;;-0.68;92.21;101728.00;5053701;28;19919;-66
2023/04/02 07:09:00;;;;;;;;;;;;;;;-0.60;91.96;101731.13;5053459;28;19935;-67
2023/04/02 07:11:25;;;;;;;;;;;;;;;-0.52;91.85;101736.88;5053231;28;20024;-66
2023/04/02 07:13:51;;;;;;;;;;;;;;;-0.37;91.81;101736.19;5053309;28;19917;-69
2023/04/02 07:16:18;;;;;;;;;;;;;;;-0.32;90.71;101739.44;5052801;28;20411;-73
2023/04/02 07:18:44;;;;;;;;;;;;;;;-0.34;90.65;101741.28;5053496;28;19913;-67
2023/04/02 07:21:09;;;;;;;;;;;;;;;-0.32;91.02;101743.84;5052836;28;20367;-69
2023/04/02 07:23:35;;;;;;;;;;;;;;;-0.24;90.58;101740.91;5052884;28;19928;-66
2023/04/02 07:26:01;;;;;;;;;;;;;;;-0.17;90.10;101737.06;5043765;28;20940;-68
2023/04/02 07:28:27;;;;;;;;;;;;;;;-0.10;89.83;101748.94;5044175;28;19913;-68
2023/04/02 07:30:52;;;;;;;;;;;;;;;-0.14;89.00;101747.41;5046536;28;19916;-65
2023/04/02 07:33:23;;;;;;;;;;;;;;;-0.13;89.20;101754.31;5052939;28;19973;-64
2023/04/02 07:35:48;;;;;;;;;;;;;;;-0.06;89.53;101766.22;5050334;28;19913;-67
2023/04/02 07:38:14;;;;;;;;;;;;;;;0.11;88.25;101768.91;5054509;28;19912;-69
2023/04/02 07:40:40;;;;;;;;;;;;;;;0.02;87.52;101771.97;5055371;28;19936;-65
2023/04/02 07:43:05;;;;;;;;;;;;;;;-0.02;87.46;101765.16;5028108;28;19919;-66
2023/04/02 07:45:31;;;;;;;;;;;;;;;-0.04;87.86;101769.63;5055072;28;20019;-66
2023/04/02 07:48:09;;;;;;;;;;;;;;;0.12;87.71;101775.84;5055024;28;20317;-69
2023/04/02 07:50:35;;;;;;;;;;;;;;;0.21;87.38;101774.56;5054113;28;19916;-66
2023/04/02 07:53:00;;;;;;;;;;;;;;;0.34;86.98;101777.50;5052380;28;19962;-65
2023/04/02 07:55:26;;;;;;;;;;;;;;;0.32;85.65;101774.94;5052531;28;19912;-70
2023/04/02 07:57:55;;;;;;;;;;;;;;;0.41;85.19;101771.03;5045645;28;19944;-65
2023/04/02 08:00:22;;;;;;;;;;;;;;;0.65;85.46;101775.09;5050130;28;19920;-66
2023/04/02 08:02:49;;;;;;;;;;;;;;;0.82;84.52;101777.72;5057219;28;19923;-70
2023/04/02 08:05:15;;;;;;;;;;;;;;;0.98;84.40;101772.59;5074615;28;20376;-69
2023/04/02 08:07:41;;;;;;;;;;;;;;;1.22;84.04;101786.25;5073738;28;20279;-68
2023/04/02 08:10:07;;;;;;;;;;;;;;;1.31;82.19;101791.03;5072946;28;19913;-65
2023/04/02 08:12:33;;;;;;;;;;;;;;;1.35;82.79;101802.22;5065446;28;19913;-68
2023/04/02 08:14:58;;;;;;;;;;;;;;;1.11;81.01;101796.41;5054363;28;19917;-65
2023/04/02 08:17:23;;;;;;;;;;;;;;;0.90;81.63;101796.56;5073077;28;19965;-66
2023/04/02 08:19:49;;;;;;;;;;;;;;;0.88;81.44;101803.69;5072591;28;19913;-64
2023/04/02 08:22:15;;;;;;;;;;;;;;;0.72;80.99;101799.25;5072466;28;19916;-64
2023/04/02 08:24:40;;;;;;;;;;;;;;;0.46;81.50;101795.25;5054644;28;19912;-65
2023/04/02 08:27:06;;;;;;;;;;;;;;;0.44;81.79;101808.41;5072587;28;20339;-64
2023/04/02 08:29:32;;;;;;;;;;;;;;;0.40;81.14;101811.25;5073639;28;19923;-65
2023/04/02 08:31:58;;;;;;;;;;;;;;;0.59;81.67;101804.22;5072127;28;19935;-70
2023/04/02 08:34:23;;;;;;;;;;;;;;;0.96;79.95;101808.53;5072042;28;20015;-65
2023/04/02 08:36:49;;;;;;;;;;;;;;;1.13;78.39;101812.94;5072108;28;19916;-65
2023/04/02 08:39:14;;;;;;;;;;;;;;;1.09;77.39;101827.13;5071981;28;20007;-69
2023/04/02 08:41:46;;;;;;;;;;;;;;;1.05;78.62;101809.84;5072106;28;19913;-68
2023/04/02 08:44:11;;;;;;;;;;;;;;;0.91;79.10;101819.25;5072246;28;19912;-69
2023/04/02 08:46:43;;;;;;;;;;;;;;;0.84;79.08;101823.06;5071835;28;20444;-70
2023/04/02 08:49:38;;;;;;;;;;;;;;;0.73;79.55;101825.38;5072268;28;20363;-69
2023/04/02 08:52:04;;;;;;;;;;;;;;;0.77;79.84;101832.19;5040424;28;19927;-71
2023/04/02 08:54:42;;;;;;;;;;;;;;;0.62;80.37;101840.78;5071846;28;19913;-71
2023/04/02 08:57:13;;;;;;;;;;;;;;;0.52;80.85;101837.72;5072069;28;19916;-71
2023/04/02 08:59:40;;;;;;;;;;;;;;;0.60;80.70;101829.53;5071649;28;20015;-69
2023/04/02 09:02:26;;;;;;;;;;;;;;;0.75;80.92;101841.03;5071607;28;19920;-69
2023/04/02 09:04:52;;;;;;;;;;;;;;;0.81;80.00;101833.72;5071909;28;20187;-70
2023/04/02 09:07:18;;;;;;;;;;;;;;;0.81;80.25;101853.84;5071693;28;19958;-68
2023/04/02 09:09:45;;;;;;;;;;;;;;;0.83;80.31;101852.84;5071506;28;19928;-68
2023/04/02 09:12:21;;;;;;;;;;;;;;;0.95;80.60;101842.72;5071287;28;19912;-68
2023/04/02 09:14:50;;;;;;;;;;;;;;;1.18;81.13;101837.19;5071261;28;19919;-67
2023/04/02 09:17:20;;;;;;;;;;;;;;;1.41;80.25;101855.25;5071564;28;19944;-69
2023/04/02 09:20:07;;;;;;;;;;;;;;;1.41;76.59;101865.75;5053526;28;19913;-69
2023/04/02 09:22:33;;;;;;;;;;;;;;;1.18;76.89;101884.44;5055839;28;19912;-69
2023/04/02 09:25:00;;;;;;;;;;;;;;;1.07;77.67;101868.34;5075292;28;19912;-69
2023/04/02 09:27:27;;;;;;;;;;;;;;;1.19;78.84;101879.09;5056898;28;19955;-69
2023/04/02 09:29:55;;;;;;;;;;;;;;;1.42;78.60;101867.44;5057267;28;19942;-67
2023/04/02 09:33:01;;;;;;;;;;;;;;;1.61;77.80;101877.03;5075262;28;19913;-67
2023/04/02 09:35:31;;;;;;;;;;;;;;;1.70;77.41;101881.78;5012940;28;20392;-68
2023/04/02 09:38:08;;;;;;;;;;;;;;;1.72;77.93;101885.19;5013201;28;20384;-68
2023/04/02 09:40:41;;;;;;;;;;;;;;;1.52;77.68;101894.94;5049511;28;19912;-69
2023/04/02 09:43:10;;;;;;;;;;;;;;;1.41;78.77;101891.13;5076910;28;19935;-68
2023/04/02 09:45:35;;;;;;;;;;;;;;;1.47;77.95;101904.84;5075370;28;19962;-71
2023/04/02 09:48:01;;;;;;;;;;;;;;;1.50;78.04;101927.47;5040789;28;20368;-66
2023/04/02 09:50:29;;;;;;;;;;;;;;;1.55;78.28;101912.31;5075942;28;19944;-68
2023/04/02 09:52:55;;;;;;;;;;;;;;;1.53;77.40;101909.78;5077217;28;19928;-75
2023/04/02 09:55:24;;;;;;;;;;;;;;;1.59;76.61;101915.63;5058323;28;19920;-73
2023/04/02 09:57:49;;;;;;;;;;;;;;;1.54;76.05;101919.34;5076328;28;20017;-75
2023/04/02 10:00:18;;;;;;;;;;;;;;;1.70;76.52;101918.56;5075945;28;19978;-69
2023/04/02 10:02:45;;;;;;;;;;;;;;;1.89;76.13;101919.34;5079701;28;19920;-71
2023/04/02 10:05:21;;;;;;;;;;;;;;;2.08;76.05;101925.34;5060136;28;19916;-72
2023/04/02 10:07:52;;;;;;;;;;;;;;;2.17;76.00;101918.75;5076567;28;19913;-71
2023/04/02 10:10:17;;;;;;;;;;;;;;;2.16;75.62;101923.16;5043816;28;19912;-69
2023/04/02 10:12:44;;;;;;;;;;;;;;;2.13;76.14;101930.38;5083858;28;19973;-67
2023/04/02 10:15:15;;;;;;;;;;;;;;;2.23;75.70;101928.09;5083420;28;20423;-69
2023/04/02 10:17:42;;;;;;;;;;;;;;;2.31;75.97;101925.91;5076744;28;20320;-68
2023/04/02 10:20:16;;;;;;;;;;;;;;;2.37;75.68;101936.97;5076223;28;20007;-67
2023/04/02 10:22:42;;;;;;;;;;;;;;;2.40;75.45;101933.31;5060116;28;20329;-67
2023/04/02 10:25:15;;;;;;;;;;;;;;;2.23;76.55;101949.13;5076696;28;19913;-68
2023/04/02 10:27:58;;;;;;;;;;;;;;;2.32;75.90;101940.78;5076364;28;19913;-67
2023/04/02 10:30:29;;;;;;;;;;;;;;;2.37;76.16;101936.13;5074860;28;19917;-68
2023/04/02 10:32:56;;;;;;;;;;;;;;;2.44;75.47;101940.13;5074254;28;19912;-69
2023/04/02 10:35:31;;;;;;;;;;;;;;;2.46;75.38;101948.78;5057268;28;19923;-68
2023/04/02 10:37:56;;;;;;;;;;;;;;;2.45;75.66;101939.19;5075536;28;20034;-68
2023/04/02 10:40:30;;;;;;;;;;;;;;;2.56;76.20;101952.59;5075239;28;19921;-72
2023/04/02 10:42:56;;;;;;;;;;;;;;;2.38;75.10;101943.91;5074990;28;19912;-69
2023/04/02 10:45:36;;;;;;;;;;;;;;;2.17;75.84;101964.28;5075026;28;20386;-68
2023/04/02 10:48:02;;;;;;;;;;;;;;;2.18;75.99;101968.63;5075007;28;19946;-68
2023/04/02 10:50:33;;;;;;;;;;;;;;;2.10;76.37;101965.53;5057099;28;19919;-71
2023/04/02 10:53:04;;;;;;;;;;;;;;;2.22;76.57;101968.44;5074824;28;19919;-68
2023/04/02 10:55:38;;;;;;;;;;;;;;;2.45;76.60;101965.47;5074986;28;20011;-71
2023/04/02 10:58:06;;;;;;;;;;;;;;;2.62;75.57;101972.47;5057011;28;20001;-69
2023/04/02 11:00:35;;;;;;;;;;;;;;;2.72;76.34;101971.03;5075778;28;20394;-69
2023/04/02 11:03:08;;;;;;;;;;;;;;;2.68;75.75;101973.00;5076290;28;19920;-68
2023/04/02 11:06:02;;;;;;;;;;;;;;;2.52;75.79;101985.25;5075532;28;20267;-69
2023/04/02 11:08:35;;;;;;;;;;;;;;;2.61;76.23;102000.56;5061975;28;19912;-68
2023/04/02 11:11:04;;;;;;;;;;;;;;;2.59;75.70;102005.03;5076180;28;20241;-69
2023/04/02 11:13:48;;;;;;;;;;;;;;;2.50;77.30;101995.00;5076130;28;20253;-68
2023/04/02 11:16:16;;;;;;;;;;;;;;;2.65;77.14;102010.00;5075544;28;20283;-68
2023/04/02 11:18:43;;;;;;;;;;;;;;;2.83;76.30;102004.66;5075085;28;19966;-69
2023/04/02 11:21:27;;;;;;;;;;;;;;;2.89;75.47;102009.59;5075680;28;19912;-69
2023/04/02 11:23:57;;;;;;;;;;;;;;;2.76;75.82;102007.63;5075662;28;20073;-69
2023/04/02 11:26:28;;;;;;;;;;;;;;;2.66;75.27;102016.94;5078250;28;19913;-70
2023/04/02 11:29:12;;;;;;;;;;;;;;;2.34;76.37;102016.00;5057632;28;19919;-74
2023/04/02 11:31:38;;;;;;;;;;;;;;;2.56;76.16;102009.59;5074533;28;19913;-73
2023/04/02 11:34:03;;;;;;;;;;;;;;;2.55;75.49;102015.78;5073717;28;20007;-71
2023/04/02 11:36:47;;;;;;;;;;;;;;;2.65;76.26;102020.50;5074119;28;20333;-73
2023/04/02 11:39:32;;;;;;;;;;;;;;;2.83;75.35;102005.50;5073275;28;19956;-67
2023/04/02 11:42:20;;;;;;;;;;;;;;;2.77;74.65;102030.38;5055182;28;19912;-75
2023/04/02 11:44:45;;;;;;;;;;;;;;;2.45;74.41;102050.47;5072053;28;19944;-68
2023/04/02 11:47:27;;;;;;;;;;;;;;;2.32;74.88;102030.16;5072973;28;20445;-68
2023/04/02 11:50:00;;;;;;;;;;;;;;;2.10;77.42;102028.59;5072917;28;19923;-72
2023/04/02 11:52:31;;;;;;;;;;;;;;;2.31;75.89;102036.31;5072929;28;19920;-66
2023/04/02 11:54:56;;;;;;;;;;;;;;;2.47;76.12;102037.22;5072579;28;19935;-68
2023/04/02 11:57:33;;;;;;;;;;;;;;;2.30;76.57;102034.59;5068444;28;20364;-67
2023/04/02 12:00:01;;;;;;;;;;;;;;;1.85;76.28;102036.00;5072716;28;20360;-69
2023/04/02 12:02:32;;;;;;;;;;;;;;;1.49;77.76;102033.41;5072099;28;19924;-66
2023/04/02 12:04:58;;;;;;;;;;;;;;;1.51;78.25;102049.91;5072702;28;19916;-69
2023/04/02 12:07:45;;;;;;;;;;;;;;;1.66;77.65;102037.81;5054496;28;19935;-67
2023/04/02 12:10:16;;;;;;;;;;;;;;;1.90;76.65;102057.66;5072888;28;19912;-69
2023/04/02 12:12:42;;;;;;;;;;;;;;;2.21;75.40;102046.44;5072499;28;19967;-67
2023/04/02 12:15:26;;;;;;;;;;;;;;;2.28;75.72;102050.47;5038579;28;19948;-65
2023/04/02 12:17:52;;;;;;;;;;;;;;;2.28;75.57;102052.25;5054749;28;19912;-71
2023/04/02 12:20:22;;;;;;;;;;;;;;;2.33;74.46;102050.25;5072053;28;20356;-71
2023/04/02 12:22:49;;;;;;;;;;;;;;;2.11;75.16;102048.72;5072591;28;20285;-68
2023/04/02 12:25:17;;;;;;;;;;;;;;;1.94;76.19;102045.19;5071665;28;19913;-69
2023/04/02 12:27:45;;;;;;;;;;;;;;;1.85;75.00;102054.41;5072144;28;19919;-73
2023/04/02 12:30:18;;;;;;;;;;;;;;;1.98;75.68;102055.47;5073410;28;19912;-73
2023/04/02 12:32:43;;;;;;;;;;;;;;;2.14;73.97;102051.19;5072323;28;19919;-72
2023/04/02 12:35:35;;;;;;;;;;;;;;;2.43;73.14;102051.47;5072171;28;19912;-73
2023/04/02 12:38:01;;;;;;;;;;;;;;;2.70;71.95;102057.94;5068025;28;19912;-71
2023/04/02 12:40:27;;;;;;;;;;;;;;;2.58;72.25;102061.19;5073352;28;19920;-71
2023/04/02 12:42:52;;;;;;;;;;;;;;;2.54;70.84;102056.16;5073081;28;19916;-72
2023/04/02 12:45:22;;;;;;;;;;;;;;;2.33;71.24;102071.28;5072433;28;19913;-70
2023/04/02 12:47:48;;;;;;;;;;;;;;;2.26;72.62;102069.88;5072979;28;20367;-68
2023/04/02 12:50:14;;;;;;;;;;;;;;;2.27;72.55;102080.31;5054615;28;19958;-72
2023/04/02 12:52:43;;;;;;;;;;;;;;;2.13;72.85;102091.53;5054137;28;20379;-70